Airfield :
LOGIN :

Register | Disclaimer

   EN    FR    IT 

 










Legend :    VFR   Marginal VFR   IFR   Intensive IFR   Very Intensive IFR
Visi :
Ceiling :
>= 8 km
>= 3000ft
5 to 8 km
1000 to 3000 ft
1500m to 5 km
500 to 1000 ft
800 to 1500m
200 to 500 ft
< 800m
< 200 ft
Symbols :   Thunderstorms  Fog  Heavy snow  Heavy precipitations  Wind > 20 kt
SIGMETs :     Misc.  Thunderstorms  Icing  Turbulence  Mountain Waves  Volcanic Ashes






- Airport Elevation : 1487 ft
- IATA code : MUC


EDDM - München Franz Josef Strauss

CURRENT METAR :
  • 200350Z 26007KT CAVOK 00/M02 Q1023 NOSIG

EXPIRED METARs :
  • 200320Z 25008KT CAVOK M01/M03 Q1024 NOSIG
  • 200250Z 25007KT CAVOK M00/M03 Q1024 NOSIG
  • 200220Z 25006KT CAVOK M00/M03 Q1024 NOSIG
  • 200150Z 24006KT 9999 FEW045 00/M03 Q1024 NOSIG
  • 200120Z 22004KT 9999 SCT045 00/M03 Q1025 NOSIG

TAF TAF EDDM
Valid from the 20 at 00:00 until the 21 at 06:00 UTC


192300Z 2000/2106 23007KT 9999 SCT035
BECMG 2012/2014 17004KT
BECMG 2021/2024 24015G25KT
BECMG 2101/2103 29020G35KT
BECMG 2104/2106 27015G25KT



MET'MAP, your aeronautical weather chart ! - Copyright ORBIFLY December 2007 - Disclaimer

ORBIFLY MET'MAP TEAM :

Programming & Development : Alexandra Zaïnal
Concept & original design : Baudouin d'Aumeries
Assistance for programming : Marc-Olivier Méhu
Technical & hardware support : Manuel Goepfert

Contact : metmap@orbifly.com




SOURCES & CREDITS :

   NOAA